Terminal Aerodrome Forecast
Issued by NWS Cleveland, OH

Home | Current Version | Previous Version | Graphics & Text | Print | Product List | Glossary On
Versions: 1 2 3 4 5 6 7 8 9 10 11 12 13 14 15 16 17 18 19 20 21
093
FTUS41 KCLE 011739
TAFTOL
TAF
KTOL 011739Z 0118/0218 04006KT 1 1/2SM BR OVC004
      TEMPO 0119/0123 3SM BR OVC006
     FM020300 04006KT 2SM -SHRA BR OVC004
     FM020900 02008KT 1SM BR OVC004=

USA.gov is the U.S. government's official web portal to all federal, state and local government web resources and services.